Terminal Aerodrome Forecast
Issued by NWS

Current Version | Previous Version | Graphics & Text | Print | Product List | Glossary On
Versions: 1 2 3 4 5 6 7 8 9 10 11 12 13 14 15 16 17 18 19
438
FTUS41 KILN 232320
TAFLCK
TAF
KLCK 232320Z 2400/2424 23006KT P6SM VCSH BKN045
      TEMPO 2400/2402 29020G30KT 2SM TSRA BR BKN025CB
     FM240200 30004KT P6SM SCT150
     FM240700 VRB03KT 5SM BR SCT250
     FM241000 27004KT 2SM BR SCT250
     FM241300 28005KT P6SM SCT030
     FM242200 34008KT P6SM SCT050=

USA.gov is the U.S. government's official web portal to all federal, state and local government web resources and services.